East Olympia, Washington
Current Conditions -  °F | °C
As of 6:54 AM on Tuesday 21 Oct 2014 (Local Time) from KOLM Reporting Station
Light Rain Light Rain  
Wind Chill: 12°   Ceiling: 4000
Heat Index: 12°   Visibility: 10mi
Dew Point: 11°   Wind: 7mph
Humidity: 93%   Direction: 190°S
Pressure: 29.87"   Gusts: NA
Location:  46.97°N, 122.84°W
Report Text: KOLM 211354Z AUTO 19006KT 10SM -RA FEW027 BKN040 OVC050 12/11 A2987 RMK AO2 RAB22 SLP116 P0003 T01170106
Loading
Personal Weather Stations






























Interactive Weather Map
Tropical Storm Tracking
New forecast layout! Learn more

10-Day Weather Forecast

Advertisements
Track Severe Weather on mobile